WAT4275 EHAM-LIML
Flight info
| Callsign | WAT4275 |
|---|---|
| Flight time | 1h 23m |
| Altitude | 37000 |
| Route | EDUPO Z739 MISGO DCT ASBON DCT TUSUK DCT KRH/N0446F380 DCT NATOR/N0444F370 DCT TRA DCT RIPUS DCT GERSA DCT SOSON DCT ODINA |
| Aircraft | A319/M-SDE3FGHIRWY/LB1 |
Departure
| Time | 2026-04-28 22:28 |
|---|---|
| Airport | Amsterdam Airport Schiphol (EHAM) |
Arrival
| Time | 2026-04-28 23:52 |
|---|---|
| Airport | Milano Linate Airport (LIML) |
| Time | Latitude | Longitude | Altitude | Speed | Heading |
|---|---|---|---|---|---|
| 2026-04-28 22:19 | 52.29921 | 4.75329 | -3 ft | 0 kts | 239° |
| 2026-04-28 22:23 | 52.29931 | 4.75354 | -3 ft | 6 kts | 227° |
| 2026-04-28 22:23 | 52.29970 | 4.75362 | -3 ft | 6 kts | 150° |
| 2026-04-28 22:23 | 52.29974 | 4.75358 | -3 ft | 0 kts | 147° |
| 2026-04-28 22:24 | 52.29973 | 4.75359 | -3 ft | 1 kts | 147° |
| 2026-04-28 22:24 | 52.29953 | 4.75380 | -3 ft | 8 kts | 147° |
| 2026-04-28 22:24 | 52.29887 | 4.75446 | -3 ft | 5 kts | 171° |
| 2026-04-28 22:24 | 52.29851 | 4.75376 | -3 ft | 11 kts | 226° |
| 2026-04-28 22:25 | 52.29777 | 4.75288 | -3 ft | 15 kts | 215° |
| 2026-04-28 22:25 | 52.29704 | 4.75137 | -3 ft | 20 kts | 238° |
| 2026-04-28 22:25 | 52.29631 | 4.74949 | -3 ft | 20 kts | 237° |
| 2026-04-28 22:25 | 52.29548 | 4.74732 | -3 ft | 22 kts | 238° |
| 2026-04-28 22:26 | 52.29468 | 4.74521 | -3 ft | 23 kts | 238° |
| 2026-04-28 22:26 | 52.29378 | 4.74339 | -3 ft | 14 kts | 192° |
| 2026-04-28 22:26 | 52.29360 | 4.74336 | -3 ft | 0 kts | 176° |
| 2026-04-28 22:26 | 52.29342 | 4.74342 | -2 ft | 8 kts | 161° |
| 2026-04-28 22:27 | 52.29288 | 4.74395 | 1 ft | 6 kts | 146° |
| 2026-04-28 22:27 | 52.29243 | 4.74552 | 1 ft | 22 kts | 78° |
| 2026-04-28 22:27 | 52.29270 | 4.74659 | 2 ft | 0 kts | 57° |
| 2026-04-28 22:27 | 52.29286 | 4.74700 | 2 ft | 24 kts | 58° |
| 2026-04-28 22:28 | 52.29511 | 4.75283 | -3 ft | 95 kts | 58° |
| 2026-04-28 22:28 | 52.29981 | 4.76509 | 9 ft | 157 kts | 58° |
| 2026-04-28 22:28 | 52.30633 | 4.78012 | 719 ft | 159 kts | 52° |
| 2026-04-28 22:28 | 52.31218 | 4.79476 | 1636 ft | 149 kts | 59° |
| 2026-04-28 22:29 | 52.31706 | 4.80933 | 2409 ft | 144 kts | 66° |
| 2026-04-28 22:29 | 52.31907 | 4.82495 | 3041 ft | 141 kts | 99° |
| 2026-04-28 22:29 | 52.31704 | 4.84058 | 3583 ft | 140 kts | 104° |
| 2026-04-28 22:29 | 52.31458 | 4.85629 | 4057 ft | 150 kts | 105° |
| 2026-04-28 22:30 | 52.31143 | 4.87494 | 4146 ft | 193 kts | 106° |
| 2026-04-28 22:30 | 52.30739 | 4.89810 | 4166 ft | 236 kts | 106° |
| 2026-04-28 22:30 | 52.30269 | 4.92488 | 4326 ft | 238 kts | 106° |
| 2026-04-28 22:30 | 52.29801 | 4.95160 | 4720 ft | 255 kts | 106° |
| 2026-04-28 22:31 | 52.29324 | 4.97888 | 5197 ft | 250 kts | 106° |
| 2026-04-28 22:31 | 52.28830 | 5.00713 | 5748 ft | 262 kts | 106° |
| 2026-04-28 22:31 | 52.28327 | 5.03590 | 6306 ft | 263 kts | 106° |
| 2026-04-28 22:31 | 52.27821 | 5.06484 | 6869 ft | 265 kts | 106° |
| 2026-04-28 22:32 | 52.27316 | 5.09364 | 7415 ft | 269 kts | 106° |
| 2026-04-28 22:32 | 52.26798 | 5.12314 | 7971 ft | 270 kts | 106° |
| 2026-04-28 22:32 | 52.26278 | 5.15269 | 8523 ft | 272 kts | 106° |
| 2026-04-28 22:32 | 52.25750 | 5.18254 | 9084 ft | 275 kts | 106° |
| 2026-04-28 22:33 | 52.25185 | 5.21259 | 9637 ft | 278 kts | 111° |
| 2026-04-28 22:33 | 52.24402 | 5.24148 | 10195 ft | 279 kts | 117° |
| 2026-04-28 22:33 | 52.23481 | 5.26949 | 10751 ft | 281 kts | 120° |
| 2026-04-28 22:33 | 52.22474 | 5.29704 | 11306 ft | 284 kts | 122° |
| 2026-04-28 22:34 | 52.21406 | 5.32437 | 11860 ft | 287 kts | 123° |
| 2026-04-28 22:34 | 52.20297 | 5.35153 | 12408 ft | 289 kts | 124° |
| 2026-04-28 22:34 | 52.19160 | 5.37856 | 12965 ft | 290 kts | 125° |
| 2026-04-28 22:34 | 52.17985 | 5.40596 | 13527 ft | 300 kts | 125° |
| 2026-04-28 22:35 | 52.16758 | 5.43426 | 14079 ft | 312 kts | 126° |
| 2026-04-28 22:35 | 52.15477 | 5.46355 | 14634 ft | 323 kts | 126° |
| 2026-04-28 22:35 | 52.14153 | 5.49372 | 15183 ft | 333 kts | 126° |
| 2026-04-28 22:35 | 52.12786 | 5.52482 | 15737 ft | 343 kts | 126° |
| 2026-04-28 22:36 | 52.11399 | 5.55641 | 16282 ft | 352 kts | 126° |
| 2026-04-28 22:36 | 52.09961 | 5.58917 | 16833 ft | 360 kts | 126° |
| 2026-04-28 22:36 | 52.08486 | 5.62267 | 17384 ft | 367 kts | 126° |
| 2026-04-28 22:36 | 52.06934 | 5.65612 | 17935 ft | 373 kts | 128° |
| 2026-04-28 22:37 | 52.05313 | 5.68927 | 18483 ft | 377 kts | 129° |
| 2026-04-28 22:37 | 52.03636 | 5.72231 | 19030 ft | 380 kts | 130° |
| 2026-04-28 22:37 | 52.01918 | 5.75526 | 19581 ft | 384 kts | 130° |
| 2026-04-28 22:37 | 52.00165 | 5.78821 | 20115 ft | 386 kts | 131° |
| 2026-04-28 22:38 | 51.98420 | 5.82081 | 20672 ft | 389 kts | 131° |
| 2026-04-28 22:38 | 51.96641 | 5.85395 | 21220 ft | 390 kts | 131° |
| 2026-04-28 22:38 | 51.94854 | 5.88719 | 21769 ft | 392 kts | 131° |
| 2026-04-28 22:38 | 51.93061 | 5.92051 | 22318 ft | 393 kts | 131° |
| 2026-04-28 22:39 | 51.91262 | 5.95390 | 22867 ft | 393 kts | 131° |
| 2026-04-28 22:39 | 51.89464 | 5.98725 | 23418 ft | 393 kts | 131° |
| 2026-04-28 22:39 | 51.87663 | 6.02060 | 23970 ft | 393 kts | 131° |
| 2026-04-28 22:39 | 51.85866 | 6.05383 | 24519 ft | 392 kts | 131° |
| 2026-04-28 22:40 | 51.84070 | 6.08697 | 25069 ft | 391 kts | 131° |
| 2026-04-28 22:40 | 51.82276 | 6.12001 | 25616 ft | 389 kts | 131° |
| 2026-04-28 22:40 | 51.80512 | 6.15240 | 26164 ft | 387 kts | 131° |
| 2026-04-28 22:40 | 51.78715 | 6.18533 | 26722 ft | 384 kts | 131° |
| 2026-04-28 22:41 | 51.76953 | 6.21759 | 27272 ft | 381 kts | 131° |
| 2026-04-28 22:41 | 51.75208 | 6.24949 | 27822 ft | 377 kts | 131° |
| 2026-04-28 22:41 | 51.73500 | 6.28067 | 28367 ft | 373 kts | 131° |
| 2026-04-28 22:41 | 51.71790 | 6.31183 | 28919 ft | 368 kts | 131° |
| 2026-04-28 22:42 | 51.70106 | 6.34247 | 29471 ft | 362 kts | 131° |
| 2026-04-28 22:42 | 51.68444 | 6.37266 | 29811 ft | 362 kts | 132° |
| 2026-04-28 22:42 | 51.66771 | 6.40299 | 30112 ft | 363 kts | 132° |
| 2026-04-28 22:42 | 51.65097 | 6.43334 | 30403 ft | 359 kts | 132° |
| 2026-04-28 22:43 | 51.63502 | 6.46225 | 30571 ft | 333 kts | 132° |
| 2026-04-28 22:43 | 51.62011 | 6.48926 | 30837 ft | 321 kts | 132° |
| 2026-04-28 22:43 | 51.60514 | 6.51636 | 30863 ft | 327 kts | 132° |
| 2026-04-28 22:44 | 51.57432 | 6.57202 | 30925 ft | 340 kts | 132° |
| 2026-04-28 22:44 | 51.54221 | 6.62986 | 30988 ft | 355 kts | 132° |
| 2026-04-28 22:45 | 51.50850 | 6.69042 | 31001 ft | 372 kts | 132° |
| 2026-04-28 22:45 | 51.47305 | 6.75396 | 31000 ft | 391 kts | 132° |
| 2026-04-28 22:46 | 51.43581 | 6.82051 | 31001 ft | 410 kts | 132° |
| 2026-04-28 22:46 | 51.39142 | 6.88074 | 31002 ft | 428 kts | 144° |
| 2026-04-28 22:47 | 51.34124 | 6.93577 | 30999 ft | 446 kts | 147° |
| 2026-04-28 22:47 | 51.28848 | 6.99075 | 31003 ft | 463 kts | 147° |
| 2026-04-28 22:48 | 51.23325 | 7.04708 | 30997 ft | 478 kts | 148° |
| 2026-04-28 22:48 | 51.17892 | 7.10190 | 30995 ft | 483 kts | 148° |
| 2026-04-28 22:48 | 51.15067 | 7.13026 | 30990 ft | 472 kts | 148° |
| 2026-04-28 22:49 | 51.12347 | 7.15749 | 30993 ft | 455 kts | 148° |
| 2026-04-28 22:49 | 51.07022 | 7.21062 | 30993 ft | 453 kts | 148° |
| 2026-04-28 22:49 | 51.04435 | 7.23636 | 30991 ft | 427 kts | 148° |
| 2026-04-28 22:50 | 51.01964 | 7.26090 | 30992 ft | 409 kts | 148° |
| 2026-04-28 22:50 | 50.99596 | 7.28439 | 30995 ft | 392 kts | 148° |
| 2026-04-28 22:50 | 50.97332 | 7.30684 | 30994 ft | 375 kts | 148° |
| 2026-04-28 22:50 | 50.95167 | 7.32829 | 30996 ft | 358 kts | 148° |
| 2026-04-28 22:51 | 50.93788 | 7.34195 | 30996 ft | 346 kts | 148° |
| 2026-04-28 22:51 | 50.89772 | 7.38043 | 31003 ft | 331 kts | 149° |
| 2026-04-28 22:52 | 50.85149 | 7.42667 | 31008 ft | 347 kts | 147° |
| 2026-04-28 22:52 | 50.81672 | 7.46137 | 31006 ft | 362 kts | 148° |
| 2026-04-28 22:53 | 50.77272 | 7.50449 | 31004 ft | 382 kts | 148° |
| 2026-04-28 22:53 | 50.72656 | 7.55027 | 31004 ft | 401 kts | 147° |
| 2026-04-28 22:54 | 50.67857 | 7.59933 | 31000 ft | 421 kts | 147° |
| 2026-04-28 22:54 | 50.62847 | 7.65097 | 31000 ft | 439 kts | 147° |
| 2026-04-28 22:55 | 50.57633 | 7.70475 | 31000 ft | 456 kts | 147° |
| 2026-04-28 22:55 | 50.52235 | 7.76033 | 30997 ft | 468 kts | 147° |
| 2026-04-28 22:56 | 50.46863 | 7.81552 | 30996 ft | 460 kts | 147° |
| 2026-04-28 22:56 | 50.41506 | 7.87039 | 30998 ft | 460 kts | 147° |
| 2026-04-28 22:57 | 50.36125 | 7.92534 | 30999 ft | 462 kts | 147° |
| 2026-04-28 22:57 | 50.30749 | 7.98009 | 30997 ft | 460 kts | 147° |
| 2026-04-28 22:58 | 50.25382 | 8.03460 | 31000 ft | 461 kts | 147° |
| 2026-04-28 22:58 | 50.19986 | 8.08924 | 30997 ft | 461 kts | 147° |
| 2026-04-28 22:59 | 50.14486 | 8.13893 | 31005 ft | 460 kts | 159° |
| 2026-04-28 22:59 | 50.08367 | 8.16927 | 31005 ft | 462 kts | 164° |
| 2026-04-28 23:00 | 50.02178 | 8.19525 | 30995 ft | 458 kts | 165° |
| 2026-04-28 23:00 | 49.96010 | 8.21985 | 30997 ft | 459 kts | 166° |
| 2026-04-28 23:01 | 49.89791 | 8.24412 | 30999 ft | 461 kts | 166° |
| 2026-04-28 23:01 | 49.83575 | 8.26811 | 31003 ft | 459 kts | 166° |
| 2026-04-28 23:02 | 49.77420 | 8.29170 | 31002 ft | 459 kts | 166° |
| 2026-04-28 23:02 | 49.71192 | 8.31545 | 31000 ft | 460 kts | 166° |
| 2026-04-28 23:03 | 49.64986 | 8.33901 | 30996 ft | 458 kts | 166° |
| 2026-04-28 23:03 | 49.58786 | 8.36247 | 31000 ft | 459 kts | 166° |
| 2026-04-28 23:04 | 49.52576 | 8.38588 | 30999 ft | 460 kts | 166° |
| 2026-04-28 23:04 | 49.43312 | 8.42068 | 30998 ft | 458 kts | 166° |
| 2026-04-28 23:05 | 49.37106 | 8.44390 | 31000 ft | 459 kts | 166° |
| 2026-04-28 23:05 | 49.30887 | 8.46712 | 30999 ft | 459 kts | 166° |
| 2026-04-28 23:06 | 49.24686 | 8.49021 | 30998 ft | 458 kts | 166° |
| 2026-04-28 23:06 | 49.18484 | 8.51324 | 31001 ft | 459 kts | 166° |
| 2026-04-28 23:07 | 49.12269 | 8.53626 | 30999 ft | 460 kts | 166° |
| 2026-04-28 23:07 | 49.06052 | 8.55925 | 30998 ft | 459 kts | 166° |
| 2026-04-28 23:08 | 48.99802 | 8.57407 | 31013 ft | 459 kts | 184° |
| 2026-04-28 23:08 | 48.93459 | 8.56097 | 31001 ft | 460 kts | 190° |
| 2026-04-28 23:09 | 48.87173 | 8.54284 | 30998 ft | 458 kts | 191° |
| 2026-04-28 23:09 | 48.80918 | 8.52348 | 31001 ft | 461 kts | 192° |
| 2026-04-28 23:10 | 48.74606 | 8.50352 | 31000 ft | 463 kts | 192° |
| 2026-04-28 23:10 | 48.68289 | 8.48341 | 30999 ft | 463 kts | 192° |
| 2026-04-28 23:11 | 48.62003 | 8.46339 | 31000 ft | 462 kts | 192° |
| 2026-04-28 23:11 | 48.55736 | 8.44344 | 30999 ft | 463 kts | 192° |
| 2026-04-28 23:12 | 48.49428 | 8.42341 | 30999 ft | 461 kts | 192° |
| 2026-04-28 23:12 | 48.43133 | 8.40346 | 30999 ft | 462 kts | 192° |
| 2026-04-28 23:13 | 48.36827 | 8.38352 | 31000 ft | 463 kts | 192° |
| 2026-04-28 23:13 | 48.30537 | 8.36368 | 31002 ft | 461 kts | 192° |
| 2026-04-28 23:14 | 48.24271 | 8.34397 | 31000 ft | 460 kts | 192° |
| 2026-04-28 23:14 | 48.17965 | 8.32999 | 31009 ft | 464 kts | 179° |
| 2026-04-28 23:15 | 48.11526 | 8.33836 | 31001 ft | 464 kts | 173° |
| 2026-04-28 23:15 | 48.05134 | 8.35149 | 30998 ft | 463 kts | 172° |
| 2026-04-28 23:16 | 47.98743 | 8.36604 | 31000 ft | 464 kts | 171° |
| 2026-04-28 23:16 | 47.92353 | 8.38110 | 31000 ft | 464 kts | 171° |
| 2026-04-28 23:17 | 47.85996 | 8.39627 | 30996 ft | 462 kts | 171° |
| 2026-04-28 23:17 | 47.79675 | 8.41139 | 30999 ft | 463 kts | 171° |
| 2026-04-28 23:18 | 47.73306 | 8.42661 | 30815 ft | 467 kts | 171° |
| 2026-04-28 23:18 | 47.70079 | 8.43344 | 30443 ft | 467 kts | 173° |
| 2026-04-28 23:18 | 47.66856 | 8.43927 | 30066 ft | 464 kts | 173° |
| 2026-04-28 23:19 | 47.63657 | 8.44454 | 29692 ft | 462 kts | 174° |
| 2026-04-28 23:19 | 47.60466 | 8.44953 | 29316 ft | 463 kts | 174° |
| 2026-04-28 23:19 | 47.57242 | 8.45442 | 28941 ft | 465 kts | 174° |
| 2026-04-28 23:19 | 47.54049 | 8.45917 | 28571 ft | 466 kts | 174° |
| 2026-04-28 23:20 | 47.50823 | 8.46392 | 28193 ft | 466 kts | 174° |
| 2026-04-28 23:20 | 47.47592 | 8.46865 | 27818 ft | 466 kts | 174° |
| 2026-04-28 23:20 | 47.44398 | 8.47331 | 27447 ft | 467 kts | 174° |
| 2026-04-28 23:20 | 47.41158 | 8.47804 | 27070 ft | 468 kts | 174° |
| 2026-04-28 23:21 | 47.37914 | 8.48276 | 26695 ft | 469 kts | 174° |
| 2026-04-28 23:21 | 47.34660 | 8.48749 | 26318 ft | 470 kts | 174° |
| 2026-04-28 23:21 | 47.31395 | 8.49223 | 25945 ft | 471 kts | 174° |
| 2026-04-28 23:21 | 47.28145 | 8.49696 | 25569 ft | 467 kts | 174° |
| 2026-04-28 23:22 | 47.24918 | 8.50166 | 25193 ft | 464 kts | 174° |
| 2026-04-28 23:22 | 47.21714 | 8.50633 | 24818 ft | 460 kts | 174° |
| 2026-04-28 23:22 | 47.18571 | 8.51091 | 24453 ft | 457 kts | 174° |
| 2026-04-28 23:22 | 47.15414 | 8.51550 | 24072 ft | 455 kts | 174° |
| 2026-04-28 23:23 | 47.12273 | 8.52007 | 23698 ft | 454 kts | 174° |
| 2026-04-28 23:23 | 47.09130 | 8.52463 | 23328 ft | 453 kts | 174° |
| 2026-04-28 23:23 | 47.06011 | 8.52914 | 22950 ft | 446 kts | 174° |
| 2026-04-28 23:23 | 47.02932 | 8.53360 | 22573 ft | 445 kts | 174° |
| 2026-04-28 23:24 | 46.99833 | 8.53808 | 22198 ft | 448 kts | 174° |
| 2026-04-28 23:24 | 46.96759 | 8.54252 | 21820 ft | 439 kts | 174° |
| 2026-04-28 23:24 | 46.93715 | 8.54692 | 21449 ft | 442 kts | 174° |
| 2026-04-28 23:24 | 46.90640 | 8.55134 | 21072 ft | 442 kts | 174° |
| 2026-04-28 23:25 | 46.87601 | 8.55571 | 20693 ft | 436 kts | 174° |
| 2026-04-28 23:25 | 46.84567 | 8.56006 | 20321 ft | 442 kts | 174° |
| 2026-04-28 23:25 | 46.81514 | 8.56444 | 19938 ft | 437 kts | 174° |
| 2026-04-28 23:25 | 46.78506 | 8.56875 | 19561 ft | 433 kts | 174° |
| 2026-04-28 23:26 | 46.75491 | 8.57307 | 19192 ft | 436 kts | 174° |
| 2026-04-28 23:26 | 46.72507 | 8.57733 | 18816 ft | 429 kts | 174° |
| 2026-04-28 23:26 | 46.69561 | 8.58153 | 18441 ft | 423 kts | 174° |
| 2026-04-28 23:26 | 46.66639 | 8.58569 | 18063 ft | 421 kts | 174° |
| 2026-04-28 23:27 | 46.63774 | 8.58977 | 17693 ft | 418 kts | 174° |
| 2026-04-28 23:27 | 46.60878 | 8.59389 | 17320 ft | 419 kts | 174° |
| 2026-04-28 23:27 | 46.57958 | 8.59804 | 16948 ft | 422 kts | 174° |
| 2026-04-28 23:27 | 46.55055 | 8.60217 | 16572 ft | 416 kts | 174° |
| 2026-04-28 23:28 | 46.52192 | 8.60624 | 16198 ft | 409 kts | 174° |
| 2026-04-28 23:28 | 46.49363 | 8.61025 | 15819 ft | 410 kts | 174° |
| 2026-04-28 23:28 | 46.46527 | 8.61427 | 15439 ft | 408 kts | 174° |
| 2026-04-28 23:28 | 46.43706 | 8.61826 | 15189 ft | 407 kts | 174° |
| 2026-04-28 23:29 | 46.40888 | 8.62223 | 15087 ft | 403 kts | 174° |
| 2026-04-28 23:29 | 46.38108 | 8.62615 | 15034 ft | 402 kts | 174° |
| 2026-04-28 23:29 | 46.35311 | 8.63009 | 15014 ft | 402 kts | 174° |
| 2026-04-28 23:29 | 46.32543 | 8.63399 | 15011 ft | 401 kts | 174° |
| 2026-04-28 23:30 | 46.29788 | 8.63786 | 15009 ft | 403 kts | 174° |
| 2026-04-28 23:30 | 46.27020 | 8.64174 | 15004 ft | 398 kts | 175° |
| 2026-04-28 23:30 | 46.24234 | 8.64564 | 15007 ft | 405 kts | 175° |
| 2026-04-28 23:30 | 46.21431 | 8.64956 | 15004 ft | 404 kts | 174° |
| 2026-04-28 23:31 | 46.18641 | 8.65347 | 15001 ft | 399 kts | 174° |
| 2026-04-28 23:31 | 46.15873 | 8.65734 | 15003 ft | 400 kts | 175° |
| 2026-04-28 23:31 | 46.13127 | 8.66308 | 15005 ft | 401 kts | 165° |
| 2026-04-28 23:31 | 46.10471 | 8.67661 | 15003 ft | 405 kts | 158° |
| 2026-04-28 23:32 | 46.07914 | 8.69272 | 14852 ft | 399 kts | 155° |
| 2026-04-28 23:32 | 46.05413 | 8.70983 | 14457 ft | 395 kts | 154° |
| 2026-04-28 23:32 | 46.02966 | 8.72735 | 14056 ft | 391 kts | 153° |
| 2026-04-28 23:32 | 46.00548 | 8.74516 | 13661 ft | 390 kts | 153° |
| 2026-04-28 23:33 | 45.98145 | 8.76317 | 13260 ft | 388 kts | 152° |
| 2026-04-28 23:33 | 45.95764 | 8.78125 | 12863 ft | 387 kts | 152° |
| 2026-04-28 23:33 | 45.93396 | 8.79936 | 12463 ft | 384 kts | 152° |
| 2026-04-28 23:33 | 45.91052 | 8.81738 | 12057 ft | 375 kts | 152° |
| 2026-04-28 23:34 | 45.88836 | 8.83448 | 11663 ft | 358 kts | 152° |
| 2026-04-28 23:34 | 45.86693 | 8.85105 | 11308 ft | 342 kts | 152° |
| 2026-04-28 23:34 | 45.84660 | 8.86678 | 11134 ft | 322 kts | 152° |
| 2026-04-28 23:34 | 45.82751 | 8.88155 | 11058 ft | 301 kts | 152° |
| 2026-04-28 23:35 | 45.80961 | 8.89540 | 11022 ft | 283 kts | 152° |
| 2026-04-28 23:35 | 45.79267 | 8.90851 | 10863 ft | 274 kts | 152° |
| 2026-04-28 23:35 | 45.77588 | 8.92148 | 10587 ft | 274 kts | 152° |
| 2026-04-28 23:35 | 45.75921 | 8.93434 | 10310 ft | 270 kts | 152° |
| 2026-04-28 23:36 | 45.74274 | 8.94706 | 10034 ft | 268 kts | 152° |
| 2026-04-28 23:36 | 45.72633 | 8.95972 | 9759 ft | 268 kts | 152° |
| 2026-04-28 23:36 | 45.70994 | 8.97237 | 9483 ft | 267 kts | 152° |
| 2026-04-28 23:36 | 45.69367 | 8.98492 | 9206 ft | 265 kts | 152° |
| 2026-04-28 23:37 | 45.67745 | 8.99741 | 8929 ft | 264 kts | 152° |
| 2026-04-28 23:37 | 45.66058 | 9.00719 | 8661 ft | 262 kts | 167° |
| 2026-04-28 23:37 | 45.64260 | 9.01165 | 8360 ft | 263 kts | 174° |
| 2026-04-28 23:37 | 45.62439 | 9.01395 | 8011 ft | 261 kts | 177° |
| 2026-04-28 23:38 | 45.60661 | 9.01497 | 7663 ft | 258 kts | 179° |
| 2026-04-28 23:38 | 45.58866 | 9.01516 | 7312 ft | 256 kts | 181° |
| 2026-04-28 23:38 | 45.57087 | 9.01477 | 6960 ft | 255 kts | 182° |
| 2026-04-28 23:38 | 45.55317 | 9.01399 | 6609 ft | 254 kts | 182° |
| 2026-04-28 23:39 | 45.53549 | 9.01296 | 6256 ft | 253 kts | 183° |
| 2026-04-28 23:39 | 45.52384 | 9.01218 | 6021 ft | 252 kts | 183° |
| 2026-04-28 23:39 | 45.50641 | 9.01093 | 5669 ft | 250 kts | 183° |
| 2026-04-28 23:39 | 45.48915 | 9.00963 | 5430 ft | 246 kts | 183° |
| 2026-04-28 23:40 | 45.47200 | 9.00831 | 5258 ft | 249 kts | 184° |
| 2026-04-28 23:40 | 45.45470 | 9.00697 | 5082 ft | 248 kts | 184° |
| 2026-04-28 23:40 | 45.43751 | 9.00564 | 4906 ft | 247 kts | 184° |
| 2026-04-28 23:40 | 45.42036 | 9.00432 | 4731 ft | 247 kts | 184° |
| 2026-04-28 23:41 | 45.40320 | 9.00301 | 4556 ft | 247 kts | 183° |
| 2026-04-28 23:41 | 45.38610 | 9.00172 | 4379 ft | 245 kts | 183° |
| 2026-04-28 23:41 | 45.36909 | 9.00044 | 4203 ft | 245 kts | 183° |
| 2026-04-28 23:41 | 45.35209 | 9.00015 | 4032 ft | 245 kts | 172° |
| 2026-04-28 23:42 | 45.33566 | 9.00632 | 3865 ft | 245 kts | 159° |
| 2026-04-28 23:42 | 45.32032 | 9.01688 | 3689 ft | 245 kts | 150° |
| 2026-04-28 23:42 | 45.30623 | 9.03023 | 3576 ft | 242 kts | 141° |
| 2026-04-28 23:42 | 45.29384 | 9.04657 | 3541 ft | 244 kts | 133° |
| 2026-04-28 23:43 | 45.28266 | 9.06472 | 3519 ft | 244 kts | 129° |
| 2026-04-28 23:43 | 45.27234 | 9.08378 | 3513 ft | 244 kts | 126° |
| 2026-04-28 23:43 | 45.26296 | 9.10393 | 3505 ft | 245 kts | 120° |
| 2026-04-28 23:43 | 45.25498 | 9.12488 | 3503 ft | 233 kts | 116° |
| 2026-04-28 23:44 | 45.24846 | 9.14491 | 3499 ft | 214 kts | 113° |
| 2026-04-28 23:44 | 45.24313 | 9.16335 | 3538 ft | 191 kts | 111° |
| 2026-04-28 23:44 | 45.23881 | 9.17996 | 3517 ft | 168 kts | 108° |
| 2026-04-28 23:44 | 45.23587 | 9.19479 | 3502 ft | 153 kts | 103° |
| 2026-04-28 23:45 | 45.23373 | 9.20968 | 3507 ft | 155 kts | 99° |
| 2026-04-28 23:45 | 45.23216 | 9.22451 | 3501 ft | 151 kts | 97° |
| 2026-04-28 23:45 | 45.23088 | 9.23948 | 3504 ft | 153 kts | 96° |
| 2026-04-28 23:45 | 45.22974 | 9.25444 | 3505 ft | 152 kts | 96° |
| 2026-04-28 23:46 | 45.22858 | 9.26946 | 3503 ft | 153 kts | 96° |
| 2026-04-28 23:46 | 45.22920 | 9.28437 | 3509 ft | 152 kts | 69° |
| 2026-04-28 23:46 | 45.23585 | 9.29548 | 3508 ft | 152 kts | 23° |
| 2026-04-28 23:46 | 45.24613 | 9.29735 | 3507 ft | 152 kts | 360° |
| 2026-04-28 23:47 | 45.25663 | 9.29725 | 3502 ft | 150 kts | 357° |
| 2026-04-28 23:47 | 45.26711 | 9.29663 | 3487 ft | 152 kts | 355° |
| 2026-04-28 23:47 | 45.27776 | 9.29556 | 3303 ft | 152 kts | 354° |
| 2026-04-28 23:47 | 45.28820 | 9.29428 | 3100 ft | 150 kts | 354° |
| 2026-04-28 23:48 | 45.29859 | 9.29293 | 2899 ft | 150 kts | 354° |
| 2026-04-28 23:48 | 45.30896 | 9.29162 | 2697 ft | 149 kts | 354° |
| 2026-04-28 23:48 | 45.31926 | 9.29039 | 2495 ft | 148 kts | 354° |
| 2026-04-28 23:48 | 45.32956 | 9.28926 | 2301 ft | 148 kts | 354° |
| 2026-04-28 23:49 | 45.33983 | 9.28819 | 2094 ft | 148 kts | 355° |
| 2026-04-28 23:49 | 45.35006 | 9.28715 | 1893 ft | 147 kts | 355° |
| 2026-04-28 23:49 | 45.36024 | 9.28611 | 1696 ft | 147 kts | 355° |
| 2026-04-28 23:49 | 45.37029 | 9.28506 | 1497 ft | 146 kts | 354° |
| 2026-04-28 23:50 | 45.38043 | 9.28398 | 1297 ft | 146 kts | 354° |
| 2026-04-28 23:50 | 45.39053 | 9.28289 | 1093 ft | 145 kts | 354° |
| 2026-04-28 23:50 | 45.40052 | 9.28182 | 988 ft | 144 kts | 354° |
| 2026-04-28 23:50 | 45.41067 | 9.28073 | 819 ft | 146 kts | 355° |
| 2026-04-28 23:51 | 45.42069 | 9.27971 | 595 ft | 145 kts | 355° |
| 2026-04-28 23:51 | 45.43087 | 9.27862 | 421 ft | 146 kts | 355° |
| 2026-04-28 23:51 | 45.44084 | 9.27750 | 357 ft | 137 kts | 355° |
| 2026-04-28 23:51 | 45.44884 | 9.27664 | 358 ft | 77 kts | 355° |
| 2026-04-28 23:52 | 45.45219 | 9.27635 | 357 ft | 29 kts | 2° |
| 2026-04-28 23:52 | 45.45382 | 9.27712 | 359 ft | 22 kts | 28° |
| 2026-04-28 23:52 | 45.45481 | 9.27807 | 360 ft | 14 kts | 16° |
| 2026-04-28 23:52 | 45.45569 | 9.27816 | 361 ft | 13 kts | 359° |
| 2026-04-28 23:53 | 45.45639 | 9.27847 | 364 ft | 9 kts | 61° |
| 2026-04-28 23:53 | 45.45651 | 9.27888 | 361 ft | 0 kts | 88° |